sensor_id;sensor_type;location;lat;lon;timestamp;temperature;humidity
1277;DHT22;631;51.024;13.826;2023-09-08T00:01:37;15.80;99.90
1277;DHT22;631;51.024;13.826;2023-09-08T00:04:03;15.70;99.90
1277;DHT22;631;51.024;13.826;2023-09-08T00:06:29;15.70;99.90
1277;DHT22;631;51.024;13.826;2023-09-08T00:08:55;15.70;99.90
1277;DHT22;631;51.024;13.826;2023-09-08T00:11:20;15.60;99.90
1277;DHT22;631;51.024;13.826;2023-09-08T00:13:46;15.60;99.90
1277;DHT22;631;51.024;13.826;2023-09-08T00:16:11;15.60;99.90
1277;DHT22;631;51.024;13.826;2023-09-08T00:18:37;15.60;99.90
1277;DHT22;631;51.024;13.826;2023-09-08T00:21:03;15.50;99.90
1277;DHT22;631;51.024;13.826;2023-09-08T00:23:28;15.50;99.90
1277;DHT22;631;51.024;13.826;2023-09-08T00:25:54;15.50;99.90
1277;DHT22;631;51.024;13.826;2023-09-08T00:28:20;15.50;99.90
1277;DHT22;631;51.024;13.826;2023-09-08T00:30:45;15.50;99.90
1277;DHT22;631;51.024;13.826;2023-09-08T00:33:11;15.40;99.90
1277;DHT22;631;51.024;13.826;2023-09-08T00:35:39;15.40;99.90
1277;DHT22;631;51.024;13.826;2023-09-08T00:38:04;15.30;99.90
1277;DHT22;631;51.024;13.826;2023-09-08T00:40:30;15.30;99.90
1277;DHT22;631;51.024;13.826;2023-09-08T00:42:56;15.30;99.90
1277;DHT22;631;51.024;13.826;2023-09-08T00:45:21;15.30;99.90
1277;DHT22;631;51.024;13.826;2023-09-08T00:47:47;15.20;99.90
1277;DHT22;631;51.024;13.826;2023-09-08T00:50:13;15.20;99.90
1277;DHT22;631;51.024;13.826;2023-09-08T00:52:39;15.10;99.90
1277;DHT22;631;51.024;13.826;2023-09-08T00:55:05;15.10;99.90
1277;DHT22;631;51.024;13.826;2023-09-08T00:57:31;15.10;99.90
1277;DHT22;631;51.024;13.826;2023-09-08T00:59:57;15.10;99.90
1277;DHT22;631;51.024;13.826;2023-09-08T01:02:23;15.00;99.90
1277;DHT22;631;51.024;13.826;2023-09-08T01:04:49;15.10;99.90
1277;DHT22;631;51.024;13.826;2023-09-08T01:07:15;15.10;99.90
1277;DHT22;631;51.024;13.826;2023-09-08T01:09:42;15.10;99.90
1277;DHT22;631;51.024;13.826;2023-09-08T01:12:08;15.10;99.90
1277;DHT22;631;51.024;13.826;2023-09-08T01:14:33;15.00;99.90
1277;DHT22;631;51.024;13.826;2023-09-08T01:16:59;15.00;99.90
1277;DHT22;631;51.024;13.826;2023-09-08T01:19:25;15.00;99.90
1277;DHT22;631;51.024;13.826;2023-09-08T01:27:29;15.00;99.90
1277;DHT22;631;51.024;13.826;2023-09-08T01:29:58;15.00;99.90
1277;DHT22;631;51.024;13.826;2023-09-08T01:32:25;15.00;99.90
1277;DHT22;631;51.024;13.826;2023-09-08T01:34:52;15.00;99.90
1277;DHT22;631;51.024;13.826;2023-09-08T01:37:17;15.00;99.90
1277;DHT22;631;51.024;13.826;2023-09-08T01:39:43;15.00;99.90
1277;DHT22;631;51.024;13.826;2023-09-08T01:42:08;15.10;99.90
1277;DHT22;631;51.024;13.826;2023-09-08T01:44:34;15.10;99.90
1277;DHT22;631;51.024;13.826;2023-09-08T01:47:00;15.10;99.90
1277;DHT22;631;51.024;13.826;2023-09-08T01:49:25;15.10;99.90
1277;DHT22;631;51.024;13.826;2023-09-08T01:51:52;15.10;99.90
1277;DHT22;631;51.024;13.826;2023-09-08T01:54:17;15.10;99.90
1277;DHT22;631;51.024;13.826;2023-09-08T01:56:43;15.10;99.90
1277;DHT22;631;51.024;13.826;2023-09-08T01:59:08;15.20;99.90
1277;DHT22;631;51.024;13.826;2023-09-08T02:01:34;15.20;99.90
1277;DHT22;631;51.024;13.826;2023-09-08T02:03:59;15.20;99.90
1277;DHT22;631;51.024;13.826;2023-09-08T02:06:25;15.20;99.90
1277;DHT22;631;51.024;13.826;2023-09-08T02:08:51;15.20;99.90
1277;DHT22;631;51.024;13.826;2023-09-08T02:11:16;15.20;99.90
1277;DHT22;631;51.024;13.826;2023-09-08T02:13:42;15.20;99.90
1277;DHT22;631;51.024;13.826;2023-09-08T02:16:15;15.20;99.90
1277;DHT22;631;51.024;13.826;2023-09-08T02:18:42;15.20;99.90
1277;DHT22;631;51.024;13.826;2023-09-08T02:21:08;15.20;99.90
1277;DHT22;631;51.024;13.826;2023-09-08T02:23:33;15.10;99.90
1277;DHT22;631;51.024;13.826;2023-09-08T02:25:59;15.10;99.90
1277;DHT22;631;51.024;13.826;2023-09-08T02:28:25;15.00;99.90
1277;DHT22;631;51.024;13.826;2023-09-08T02:30:50;15.00;99.90
1277;DHT22;631;51.024;13.826;2023-09-08T02:33:16;14.90;99.90
1277;DHT22;631;51.024;13.826;2023-09-08T02:35:42;14.90;99.90
1277;DHT22;631;51.024;13.826;2023-09-08T02:38:08;14.90;99.90
1277;DHT22;631;51.024;13.826;2023-09-08T02:40:34;14.90;99.90
1277;DHT22;631;51.024;13.826;2023-09-08T02:43:03;14.80;99.90
1277;DHT22;631;51.024;13.826;2023-09-08T02:45:29;14.80;99.90
1277;DHT22;631;51.024;13.826;2023-09-08T02:47:55;14.80;99.90
1277;DHT22;631;51.024;13.826;2023-09-08T02:50:21;14.80;99.90
1277;DHT22;631;51.024;13.826;2023-09-08T02:52:46;14.80;99.90
1277;DHT22;631;51.024;13.826;2023-09-08T02:55:12;14.80;99.90
1277;DHT22;631;51.024;13.826;2023-09-08T02:57:39;14.80;99.90
1277;DHT22;631;51.024;13.826;2023-09-08T03:00:05;14.80;99.90
1277;DHT22;631;51.024;13.826;2023-09-08T03:02:32;14.80;99.90
1277;DHT22;631;51.024;13.826;2023-09-08T03:04:57;14.80;99.90
1277;DHT22;631;51.024;13.826;2023-09-08T03:07:23;14.70;99.90
1277;DHT22;631;51.024;13.826;2023-09-08T03:09:48;14.70;99.90
1277;DHT22;631;51.024;13.826;2023-09-08T03:12:14;14.70;99.90
1277;DHT22;631;51.024;13.826;2023-09-08T03:14:40;14.60;99.90
1277;DHT22;631;51.024;13.826;2023-09-08T03:17:05;14.60;99.90
1277;DHT22;631;51.024;13.826;2023-09-08T03:19:32;14.60;99.90
1277;DHT22;631;51.024;13.826;2023-09-08T03:21:57;14.60;99.90
1277;DHT22;631;51.024;13.826;2023-09-08T03:24:23;14.50;99.90
1277;DHT22;631;51.024;13.826;2023-09-08T03:26:49;14.50;99.90
1277;DHT22;631;51.024;13.826;2023-09-08T03:29:15;14.50;99.90
1277;DHT22;631;51.024;13.826;2023-09-08T03:31:40;14.40;99.90
1277;DHT22;631;51.024;13.826;2023-09-08T03:34:06;14.40;99.90
1277;DHT22;631;51.024;13.826;2023-09-08T03:36:32;14.30;99.90
1277;DHT22;631;51.024;13.826;2023-09-08T03:39:01;14.30;99.90
1277;DHT22;631;51.024;13.826;2023-09-08T03:41:27;14.20;99.90
1277;DHT22;631;51.024;13.826;2023-09-08T03:43:52;14.20;99.90
1277;DHT22;631;51.024;13.826;2023-09-08T03:46:18;14.20;99.90
1277;DHT22;631;51.024;13.826;2023-09-08T03:48:43;14.10;99.90
1277;DHT22;631;51.024;13.826;2023-09-08T03:51:09;14.20;99.90
1277;DHT22;631;51.024;13.826;2023-09-08T03:53:35;14.20;99.90
1277;DHT22;631;51.024;13.826;2023-09-08T03:56:00;14.10;99.90
1277;DHT22;631;51.024;13.826;2023-09-08T03:58:26;14.20;99.90
1277;DHT22;631;51.024;13.826;2023-09-08T04:00:51;14.10;99.90
1277;DHT22;631;51.024;13.826;2023-09-08T04:03:17;14.00;99.90
1277;DHT22;631;51.024;13.826;2023-09-08T04:05:43;14.00;99.90
1277;DHT22;631;51.024;13.826;2023-09-08T04:08:08;14.00;99.90
1277;DHT22;631;51.024;13.826;2023-09-08T04:10:34;14.00;99.90
1277;DHT22;631;51.024;13.826;2023-09-08T04:13:00;14.00;99.90
1277;DHT22;631;51.024;13.826;2023-09-08T04:15:25;14.00;99.90
1277;DHT22;631;51.024;13.826;2023-09-08T04:17:51;14.00;99.90
1277;DHT22;631;51.024;13.826;2023-09-08T04:20:16;14.00;99.90
1277;DHT22;631;51.024;13.826;2023-09-08T04:22:42;14.10;99.90
1277;DHT22;631;51.024;13.826;2023-09-08T04:25:08;14.10;99.90
1277;DHT22;631;51.024;13.826;2023-09-08T04:27:34;14.10;99.90
1277;DHT22;631;51.024;13.826;2023-09-08T04:30:02;14.10;99.90
1277;DHT22;631;51.024;13.826;2023-09-08T04:32:28;14.10;99.90
1277;DHT22;631;51.024;13.826;2023-09-08T04:34:54;14.10;99.90
1277;DHT22;631;51.024;13.826;2023-09-08T04:37:19;14.10;99.90
1277;DHT22;631;51.024;13.826;2023-09-08T04:39:45;14.10;99.90
1277;DHT22;631;51.024;13.826;2023-09-08T04:42:11;14.10;99.90
1277;DHT22;631;51.024;13.826;2023-09-08T04:44:37;14.10;99.90
1277;DHT22;631;51.024;13.826;2023-09-08T04:47:03;14.10;99.90
1277;DHT22;631;51.024;13.826;2023-09-08T04:49:29;14.10;99.90
1277;DHT22;631;51.024;13.826;2023-09-08T04:51:54;14.10;99.90
1277;DHT22;631;51.024;13.826;2023-09-08T04:54:20;14.00;99.90
1277;DHT22;631;51.024;13.826;2023-09-08T04:56:47;14.00;99.90
1277;DHT22;631;51.024;13.826;2023-09-08T04:59:13;14.00;99.90
1277;DHT22;631;51.024;13.826;2023-09-08T05:01:38;14.00;99.90
1277;DHT22;631;51.024;13.826;2023-09-08T05:04:05;14.00;99.90
1277;DHT22;631;51.024;13.826;2023-09-08T05:06:31;14.00;99.90
1277;DHT22;631;51.024;13.826;2023-09-08T05:08:58;14.00;99.90
1277;DHT22;631;51.024;13.826;2023-09-08T05:11:24;14.00;99.90
1277;DHT22;631;51.024;13.826;2023-09-08T05:13:51;14.00;99.90
1277;DHT22;631;51.024;13.826;2023-09-08T05:16:17;14.00;99.90
1277;DHT22;631;51.024;13.826;2023-09-08T05:18:44;14.00;99.90
1277;DHT22;631;51.024;13.826;2023-09-08T05:21:09;14.10;99.90
1277;DHT22;631;51.024;13.826;2023-09-08T05:23:35;14.10;99.90
1277;DHT22;631;51.024;13.826;2023-09-08T05:26:01;14.20;99.90
1277;DHT22;631;51.024;13.826;2023-09-08T05:28:26;14.20;99.90
1277;DHT22;631;51.024;13.826;2023-09-08T05:30:53;14.30;99.90
1277;DHT22;631;51.024;13.826;2023-09-08T05:33:18;14.30;99.90
1277;DHT22;631;51.024;13.826;2023-09-08T05:35:45;14.40;99.90
1277;DHT22;631;51.024;13.826;2023-09-08T05:38:11;14.50;99.90
1277;DHT22;631;51.024;13.826;2023-09-08T05:40:36;14.50;99.90
1277;DHT22;631;51.024;13.826;2023-09-08T05:43:02;14.60;99.90
1277;DHT22;631;51.024;13.826;2023-09-08T05:45:27;14.60;99.90
1277;DHT22;631;51.024;13.826;2023-09-08T05:47:53;14.70;99.90
1277;DHT22;631;51.024;13.826;2023-09-08T05:50:19;14.80;99.90
1277;DHT22;631;51.024;13.826;2023-09-08T05:52:44;14.80;99.90
1277;DHT22;631;51.024;13.826;2023-09-08T05:55:10;14.90;99.90
1277;DHT22;631;51.024;13.826;2023-09-08T05:57:36;15.00;99.90
1277;DHT22;631;51.024;13.826;2023-09-08T06:00:03;15.00;99.90
1277;DHT22;631;51.024;13.826;2023-09-08T06:02:29;15.10;99.90
1277;DHT22;631;51.024;13.826;2023-09-08T06:04:54;15.20;99.90
1277;DHT22;631;51.024;13.826;2023-09-08T06:07:21;15.30;99.90
1277;DHT22;631;51.024;13.826;2023-09-08T06:09:47;15.40;99.90
1277;DHT22;631;51.024;13.826;2023-09-08T06:12:12;15.50;99.90
1277;DHT22;631;51.024;13.826;2023-09-08T06:14:38;15.60;99.90
1277;DHT22;631;51.024;13.826;2023-09-08T06:17:04;15.70;99.90
1277;DHT22;631;51.024;13.826;2023-09-08T06:19:29;15.90;99.90
1277;DHT22;631;51.024;13.826;2023-09-08T06:21:55;16.00;99.90
1277;DHT22;631;51.024;13.826;2023-09-08T06:24:20;16.20;99.90
1277;DHT22;631;51.024;13.826;2023-09-08T06:26:46;16.30;99.90
1277;DHT22;631;51.024;13.826;2023-09-08T06:29:12;16.50;99.90
1277;DHT22;631;51.024;13.826;2023-09-08T06:31:37;16.60;99.90
1277;DHT22;631;51.024;13.826;2023-09-08T06:34:03;16.80;99.90
1277;DHT22;631;51.024;13.826;2023-09-08T06:36:28;16.90;99.90
1277;DHT22;631;51.024;13.826;2023-09-08T06:38:54;17.10;99.90
1277;DHT22;631;51.024;13.826;2023-09-08T06:41:19;17.20;99.90
1277;DHT22;631;51.024;13.826;2023-09-08T06:43:45;17.40;99.90
1277;DHT22;631;51.024;13.826;2023-09-08T06:46:11;17.50;99.90
1277;DHT22;631;51.024;13.826;2023-09-08T06:48:37;17.70;99.90
1277;DHT22;631;51.024;13.826;2023-09-08T06:51:02;17.80;99.90
1277;DHT22;631;51.024;13.826;2023-09-08T06:53:28;17.90;99.90
1277;DHT22;631;51.024;13.826;2023-09-08T06:55:54;18.10;99.90
1277;DHT22;631;51.024;13.826;2023-09-08T06:58:19;18.10;99.90
1277;DHT22;631;51.024;13.826;2023-09-08T07:00:45;18.30;99.90
1277;DHT22;631;51.024;13.826;2023-09-08T07:03:10;18.40;99.90
1277;DHT22;631;51.024;13.826;2023-09-08T07:05:39;18.50;99.90
1277;DHT22;631;51.024;13.826;2023-09-08T07:08:04;18.70;99.90
1277;DHT22;631;51.024;13.826;2023-09-08T07:10:31;18.80;99.90
1277;DHT22;631;51.024;13.826;2023-09-08T07:12:57;18.90;99.90
1277;DHT22;631;51.024;13.826;2023-09-08T07:15:23;19.10;99.90
1277;DHT22;631;51.024;13.826;2023-09-08T07:17:49;19.30;99.90
1277;DHT22;631;51.024;13.826;2023-09-08T07:20:16;19.40;99.90
1277;DHT22;631;51.024;13.826;2023-09-08T07:22:43;19.60;99.90
1277;DHT22;631;51.024;13.826;2023-09-08T07:25:09;19.80;99.90
1277;DHT22;631;51.024;13.826;2023-09-08T07:27:35;19.90;99.90
1277;DHT22;631;51.024;13.826;2023-09-08T07:30:00;20.10;99.90
1277;DHT22;631;51.024;13.826;2023-09-08T07:32:26;20.20;99.90
1277;DHT22;631;51.024;13.826;2023-09-08T07:34:52;20.40;99.90
1277;DHT22;631;51.024;13.826;2023-09-08T07:37:24;20.50;99.90
1277;DHT22;631;51.024;13.826;2023-09-08T07:39:51;20.70;99.90
1277;DHT22;631;51.024;13.826;2023-09-08T07:42:17;20.80;99.90
1277;DHT22;631;51.024;13.826;2023-09-08T07:44:44;21.00;99.90
1277;DHT22;631;51.024;13.826;2023-09-08T07:47:10;21.10;99.90
1277;DHT22;631;51.024;13.826;2023-09-08T07:49:36;21.30;99.90
1277;DHT22;631;51.024;13.826;2023-09-08T07:52:02;21.50;99.90
1277;DHT22;631;51.024;13.826;2023-09-08T07:54:30;21.60;99.90
1277;DHT22;631;51.024;13.826;2023-09-08T07:56:55;21.80;99.90
1277;DHT22;631;51.024;13.826;2023-09-08T07:59:21;22.00;99.90
1277;DHT22;631;51.024;13.826;2023-09-08T08:01:47;22.20;99.90
1277;DHT22;631;51.024;13.826;2023-09-08T08:04:12;22.40;99.90
1277;DHT22;631;51.024;13.826;2023-09-08T08:06:38;22.50;99.90
1277;DHT22;631;51.024;13.826;2023-09-08T08:09:04;22.70;99.90
1277;DHT22;631;51.024;13.826;2023-09-08T08:11:29;22.80;99.90
1277;DHT22;631;51.024;13.826;2023-09-08T08:13:55;23.00;99.90
1277;DHT22;631;51.024;13.826;2023-09-08T08:16:22;23.20;99.90
1277;DHT22;631;51.024;13.826;2023-09-08T08:18:48;23.40;99.90
1277;DHT22;631;51.024;13.826;2023-09-08T08:21:14;23.50;99.80
1277;DHT22;631;51.024;13.826;2023-09-08T08:23:40;23.60;99.30
1277;DHT22;631;51.024;13.826;2023-09-08T08:26:06;23.90;97.30
1277;DHT22;631;51.024;13.826;2023-09-08T08:28:32;24.20;97.70
1277;DHT22;631;51.024;13.826;2023-09-08T08:30:57;24.40;95.70
1277;DHT22;631;51.024;13.826;2023-09-08T08:33:23;24.70;94.60
1277;DHT22;631;51.024;13.826;2023-09-08T08:35:52;25.00;93.40
1277;DHT22;631;51.024;13.826;2023-09-08T08:38:18;25.40;92.60
1277;DHT22;631;51.024;13.826;2023-09-08T08:40:44;25.70;90.50
1277;DHT22;631;51.024;13.826;2023-09-08T08:43:09;26.20;85.60
1277;DHT22;631;51.024;13.826;2023-09-08T08:45:37;26.70;82.10
1277;DHT22;631;51.024;13.826;2023-09-08T08:48:04;27.20;76.90
1277;DHT22;631;51.024;13.826;2023-09-08T08:50:31;27.60;71.10
1277;DHT22;631;51.024;13.826;2023-09-08T08:52:57;28.20;69.20
1277;DHT22;631;51.024;13.826;2023-09-08T08:55:25;28.70;65.00
1277;DHT22;631;51.024;13.826;2023-09-08T08:57:51;29.10;58.90
1277;DHT22;631;51.024;13.826;2023-09-08T09:00:18;29.60;57.40
1277;DHT22;631;51.024;13.826;2023-09-08T09:02:45;30.10;53.00
1277;DHT22;631;51.024;13.826;2023-09-08T09:05:14;30.40;51.90
1277;DHT22;631;51.024;13.826;2023-09-08T09:07:42;30.90;49.60
1277;DHT22;631;51.024;13.826;2023-09-08T09:10:08;31.30;46.70
1277;DHT22;631;51.024;13.826;2023-09-08T09:12:36;31.70;45.10
1277;DHT22;631;51.024;13.826;2023-09-08T09:15:03;32.10;43.10
1277;DHT22;631;51.024;13.826;2023-09-08T09:17:32;32.20;41.60
1277;DHT22;631;51.024;13.826;2023-09-08T09:20:18;32.70;41.50
1277;DHT22;631;51.024;13.826;2023-09-08T09:22:46;33.10;39.40
1277;DHT22;631;51.024;13.826;2023-09-08T09:25:23;33.10;38.60
1277;DHT22;631;51.024;13.826;2023-09-08T09:28:07;33.40;38.40
1277;DHT22;631;51.024;13.826;2023-09-08T09:30:48;33.90;37.20
1277;DHT22;631;51.024;13.826;2023-09-08T09:33:14;34.10;35.20
1277;DHT22;631;51.024;13.826;2023-09-08T09:35:51;34.20;33.70
1277;DHT22;631;51.024;13.826;2023-09-08T09:38:17;34.00;31.40
1277;DHT22;631;51.024;13.826;2023-09-08T09:40:47;34.40;30.10
1277;DHT22;631;51.024;13.826;2023-09-08T09:43:14;34.50;30.00
1277;DHT22;631;51.024;13.826;2023-09-08T09:45:42;34.90;28.50
1277;DHT22;631;51.024;13.826;2023-09-08T09:48:09;34.90;27.20
1277;DHT22;631;51.024;13.826;2023-09-08T09:50:40;35.00;26.50
1277;DHT22;631;51.024;13.826;2023-09-08T09:53:14;35.20;26.40
1277;DHT22;631;51.024;13.826;2023-09-08T09:55:46;35.40;26.50
1277;DHT22;631;51.024;13.826;2023-09-08T09:58:12;35.60;25.10
1277;DHT22;631;51.024;13.826;2023-09-08T10:00:39;35.50;24.00
1277;DHT22;631;51.024;13.826;2023-09-08T10:03:13;35.20;23.80
1277;DHT22;631;51.024;13.826;2023-09-08T10:05:39;35.40;24.10
1277;DHT22;631;51.024;13.826;2023-09-08T10:08:05;35.40;24.00
1277;DHT22;631;51.024;13.826;2023-09-08T10:10:32;35.50;23.90
1277;DHT22;631;51.024;13.826;2023-09-08T10:13:02;35.80;23.80
1277;DHT22;631;51.024;13.826;2023-09-08T10:15:31;35.80;23.20
1277;DHT22;631;51.024;13.826;2023-09-08T10:17:57;35.20;23.00
1277;DHT22;631;51.024;13.826;2023-09-08T10:20:26;35.30;23.70
1277;DHT22;631;51.024;13.826;2023-09-08T10:22:56;35.20;24.30
1277;DHT22;631;51.024;13.826;2023-09-08T10:25:29;35.60;22.90
1277;DHT22;631;51.024;13.826;2023-09-08T10:27:56;35.70;23.00
1277;DHT22;631;51.024;13.826;2023-09-08T10:30:22;36.00;23.60
1277;DHT22;631;51.024;13.826;2023-09-08T10:32:50;36.20;22.30
1277;DHT22;631;51.024;13.826;2023-09-08T10:35:16;36.20;21.00
1277;DHT22;631;51.024;13.826;2023-09-08T10:37:43;36.00;21.00
1277;DHT22;631;51.024;13.826;2023-09-08T10:40:24;36.50;21.10
1277;DHT22;631;51.024;13.826;2023-09-08T10:43:08;36.70;20.30
1277;DHT22;631;51.024;13.826;2023-09-08T10:45:34;36.80;20.40
1277;DHT22;631;51.024;13.826;2023-09-08T10:48:01;37.10;20.60
1277;DHT22;631;51.024;13.826;2023-09-08T10:50:31;37.70;19.90
1277;DHT22;631;51.024;13.826;2023-09-08T10:53:15;38.00;19.40
1277;DHT22;631;51.024;13.826;2023-09-08T10:55:47;38.00;18.70
1277;DHT22;631;51.024;13.826;2023-09-08T10:58:21;38.20;18.50
1277;DHT22;631;51.024;13.826;2023-09-08T11:00:53;38.00;18.10
1277;DHT22;631;51.024;13.826;2023-09-08T11:06:05;38.00;18.80
1277;DHT22;631;51.024;13.826;2023-09-08T11:08:33;37.80;17.50
1277;DHT22;631;51.024;13.826;2023-09-08T11:10:59;37.30;17.80
1277;DHT22;631;51.024;13.826;2023-09-08T11:13:26;37.00;17.70
1277;DHT22;631;51.024;13.826;2023-09-08T11:15:55;37.30;18.10
1277;DHT22;631;51.024;13.826;2023-09-08T11:18:31;37.00;17.80
1277;DHT22;631;51.024;13.826;2023-09-08T11:20:57;37.40;18.10
1277;DHT22;631;51.024;13.826;2023-09-08T11:23:23;37.50;18.00
1277;DHT22;631;51.024;13.826;2023-09-08T11:25:50;36.90;17.90
1277;DHT22;631;51.024;13.826;2023-09-08T11:28:17;37.50;18.60
1277;DHT22;631;51.024;13.826;2023-09-08T11:30:46;37.70;18.60
1277;DHT22;631;51.024;13.826;2023-09-08T11:33:19;38.20;18.20
1277;DHT22;631;51.024;13.826;2023-09-08T11:35:48;38.20;16.90
1277;DHT22;631;51.024;13.826;2023-09-08T11:38:14;38.40;17.60
1277;DHT22;631;51.024;13.826;2023-09-08T11:40:41;38.80;17.40
1277;DHT22;631;51.024;13.826;2023-09-08T11:43:07;39.00;17.00
1277;DHT22;631;51.024;13.826;2023-09-08T11:45:36;38.70;17.30
1277;DHT22;631;51.024;13.826;2023-09-08T11:48:03;37.80;17.40
1277;DHT22;631;51.024;13.826;2023-09-08T11:50:30;38.60;17.90
1277;DHT22;631;51.024;13.826;2023-09-08T11:52:56;38.70;17.20
1277;DHT22;631;51.024;13.826;2023-09-08T11:55:24;38.60;17.60
1277;DHT22;631;51.024;13.826;2023-09-08T11:57:53;38.70;17.40
1277;DHT22;631;51.024;13.826;2023-09-08T12:00:27;38.00;17.40
1277;DHT22;631;51.024;13.826;2023-09-08T12:02:53;37.70;17.70
1277;DHT22;631;51.024;13.826;2023-09-08T12:05:23;37.90;18.20
1277;DHT22;631;51.024;13.826;2023-09-08T12:07:51;38.00;17.80
1277;DHT22;631;51.024;13.826;2023-09-08T12:10:16;38.40;18.40
1277;DHT22;631;51.024;13.826;2023-09-08T12:12:48;38.10;17.90
1277;DHT22;631;51.024;13.826;2023-09-08T12:17:59;36.70;18.20
1277;DHT22;631;51.024;13.826;2023-09-08T12:20:26;36.30;19.70
1277;DHT22;631;51.024;13.826;2023-09-08T12:22:52;35.90;20.20
1277;DHT22;631;51.024;13.826;2023-09-08T12:25:18;35.70;20.80
1277;DHT22;631;51.024;13.826;2023-09-08T12:27:50;35.40;20.20
1277;DHT22;631;51.024;13.826;2023-09-08T12:30:23;35.10;19.60
1277;DHT22;631;51.024;13.826;2023-09-08T12:33:01;35.00;20.40
1277;DHT22;631;51.024;13.826;2023-09-08T12:35:28;34.90;20.10
1277;DHT22;631;51.024;13.826;2023-09-08T12:38:01;34.80;20.00
1277;DHT22;631;51.024;13.826;2023-09-08T12:40:29;34.70;20.40
1277;DHT22;631;51.024;13.826;2023-09-08T12:42:55;34.70;20.60
1277;DHT22;631;51.024;13.826;2023-09-08T12:45:22;34.70;21.00
1277;DHT22;631;51.024;13.826;2023-09-08T12:47:50;34.70;20.40
1277;DHT22;631;51.024;13.826;2023-09-08T12:50:16;34.70;20.40
1277;DHT22;631;51.024;13.826;2023-09-08T12:52:42;34.50;19.60
1277;DHT22;631;51.024;13.826;2023-09-08T12:55:07;34.60;19.80
1277;DHT22;631;51.024;13.826;2023-09-08T12:57:34;34.60;21.00
1277;DHT22;631;51.024;13.826;2023-09-08T13:00:00;34.60;20.40
1277;DHT22;631;51.024;13.826;2023-09-08T13:02:25;34.70;19.80
1277;DHT22;631;51.024;13.826;2023-09-08T13:04:51;34.50;20.30
1277;DHT22;631;51.024;13.826;2023-09-08T13:07:17;34.50;20.80
1277;DHT22;631;51.024;13.826;2023-09-08T13:09:44;34.40;21.10
1277;DHT22;631;51.024;13.826;2023-09-08T13:12:10;34.30;21.30
1277;DHT22;631;51.024;13.826;2023-09-08T13:14:36;34.40;21.50
1277;DHT22;631;51.024;13.826;2023-09-08T13:17:02;34.60;21.70
1277;DHT22;631;51.024;13.826;2023-09-08T13:19:28;34.70;21.10
1277;DHT22;631;51.024;13.826;2023-09-08T13:21:54;34.90;20.80
1277;DHT22;631;51.024;13.826;2023-09-08T13:24:20;35.20;20.20
1277;DHT22;631;51.024;13.826;2023-09-08T13:26:47;35.40;20.20
1277;DHT22;631;51.024;13.826;2023-09-08T13:29:13;35.80;20.40
1277;DHT22;631;51.024;13.826;2023-09-08T13:31:39;36.00;19.20
1277;DHT22;631;51.024;13.826;2023-09-08T13:34:05;36.10;18.60
1277;DHT22;631;51.024;13.826;2023-09-08T13:36:30;36.30;18.80
1277;DHT22;631;51.024;13.826;2023-09-08T13:38:56;36.80;19.00
1277;DHT22;631;51.024;13.826;2023-09-08T13:41:23;36.90;18.10
1277;DHT22;631;51.024;13.826;2023-09-08T13:43:48;36.70;17.90
1277;DHT22;631;51.024;13.826;2023-09-08T13:46:14;37.00;17.80
1277;DHT22;631;51.024;13.826;2023-09-08T13:48:40;37.60;18.30
1277;DHT22;631;51.024;13.826;2023-09-08T13:51:05;38.20;17.90
1277;DHT22;631;51.024;13.826;2023-09-08T13:53:31;38.70;17.80
1277;DHT22;631;51.024;13.826;2023-09-08T13:55:57;39.10;17.50
1277;DHT22;631;51.024;13.826;2023-09-08T13:58:23;39.60;17.00
1277;DHT22;631;51.024;13.826;2023-09-08T14:00:48;39.90;16.80
1277;DHT22;631;51.024;13.826;2023-09-08T14:03:16;40.10;16.10
1277;DHT22;631;51.024;13.826;2023-09-08T14:05:42;40.30;15.50
1277;DHT22;631;51.024;13.826;2023-09-08T14:08:07;40.10;15.40
1277;DHT22;631;51.024;13.826;2023-09-08T14:10:33;39.90;15.10
1277;DHT22;631;51.024;13.826;2023-09-08T14:12:59;40.00;15.50
1277;DHT22;631;51.024;13.826;2023-09-08T14:15:25;39.90;15.30
1277;DHT22;631;51.024;13.826;2023-09-08T14:17:50;39.30;15.10
1277;DHT22;631;51.024;13.826;2023-09-08T14:20:16;39.40;15.30
1277;DHT22;631;51.024;13.826;2023-09-08T14:22:41;39.50;15.30
1277;DHT22;631;51.024;13.826;2023-09-08T14:25:07;39.50;16.00
1277;DHT22;631;51.024;13.826;2023-09-08T14:27:33;39.70;15.50
1277;DHT22;631;51.024;13.826;2023-09-08T14:30:00;39.50;15.00
1277;DHT22;631;51.024;13.826;2023-09-08T14:32:26;39.50;15.00
1277;DHT22;631;51.024;13.826;2023-09-08T14:34:51;39.40;15.00
1277;DHT22;631;51.024;13.826;2023-09-08T14:37:17;39.50;15.60
1277;DHT22;631;51.024;13.826;2023-09-08T14:39:42;39.50;15.30
1277;DHT22;631;51.024;13.826;2023-09-08T14:42:08;39.30;14.90
1277;DHT22;631;51.024;13.826;2023-09-08T14:44:35;39.20;99.90
1277;DHT22;631;51.024;13.826;2023-09-08T14:47:00;38.30;99.90
1277;DHT22;631;51.024;13.826;2023-09-08T14:49:26;37.60;99.90
1277;DHT22;631;51.024;13.826;2023-09-08T14:51:51;37.70;99.90
1277;DHT22;631;51.024;13.826;2023-09-08T14:54:17;37.80;99.90
1277;DHT22;631;51.024;13.826;2023-09-08T14:56:43;37.90;99.90
1277;DHT22;631;51.024;13.826;2023-09-08T14:59:08;37.80;99.90
1277;DHT22;631;51.024;13.826;2023-09-08T15:01:34;37.60;99.90
1277;DHT22;631;51.024;13.826;2023-09-08T15:04:00;37.20;99.90
1277;DHT22;631;51.024;13.826;2023-09-08T15:06:25;37.10;99.90
1277;DHT22;631;51.024;13.826;2023-09-08T15:08:51;37.00;99.90
1277;DHT22;631;51.024;13.826;2023-09-08T15:11:17;37.10;99.90
1277;DHT22;631;51.024;13.826;2023-09-08T15:13:42;36.90;99.90
1277;DHT22;631;51.024;13.826;2023-09-08T15:16:08;37.00;99.90
1277;DHT22;631;51.024;13.826;2023-09-08T15:18:33;37.20;99.90
1277;DHT22;631;51.024;13.826;2023-09-08T15:20:59;36.70;99.90
1277;DHT22;631;51.024;13.826;2023-09-08T15:23:24;36.90;99.90
1277;DHT22;631;51.024;13.826;2023-09-08T15:25:55;36.80;99.90
1277;DHT22;631;51.024;13.826;2023-09-08T15:28:21;36.90;99.90
1277;DHT22;631;51.024;13.826;2023-09-08T15:30:51;36.40;99.90
1277;DHT22;631;51.024;13.826;2023-09-08T15:33:17;36.10;99.90
1277;DHT22;631;51.024;13.826;2023-09-08T15:35:45;35.60;99.90
1277;DHT22;631;51.024;13.826;2023-09-08T15:38:10;35.70;99.90
1277;DHT22;631;51.024;13.826;2023-09-08T15:43:37;35.90;99.90
1277;DHT22;631;51.024;13.826;2023-09-08T15:46:04;35.80;99.90
1277;DHT22;631;51.024;13.826;2023-09-08T15:48:29;35.70;99.90
1277;DHT22;631;51.024;13.826;2023-09-08T15:50:55;35.70;99.90
1277;DHT22;631;51.024;13.826;2023-09-08T15:53:21;35.50;99.90
1277;DHT22;631;51.024;13.826;2023-09-08T15:55:47;35.20;99.90
1277;DHT22;631;51.024;13.826;2023-09-08T15:58:12;34.90;99.90
1277;DHT22;631;51.024;13.826;2023-09-08T16:00:38;34.50;99.90
1277;DHT22;631;51.024;13.826;2023-09-08T16:03:04;34.10;99.90
1277;DHT22;631;51.024;13.826;2023-09-08T16:05:30;33.70;99.90
1277;DHT22;631;51.024;13.826;2023-09-08T16:07:55;33.50;99.90
1277;DHT22;631;51.024;13.826;2023-09-08T16:10:21;33.20;23.10
1277;DHT22;631;51.024;13.826;2023-09-08T16:12:47;33.00;23.60